Data for 03/06/2015

Time Sea-Level Adjusted Pressure Absolute Pressure Temperature Relative Humidity Dew Point   
(mb) (inHg) (mb) (inHg) (C) (F) (%) (C) (F)
00:05 1024 30.24 854 25.22 2.1 35.9 42 -9.5 15
00:10 1024 30.24 854 25.22 1.9 35.5 41 -10.1 13.7
00:15 1024 30.24 854 25.22 2.4 36.4 37 -10.8 12.5
00:20 1024 30.24 854 25.22 2.8 37 34 -11.7 11
00:25 1024 30.24 854 25.22 3.1 37.5 38 -10 14.1
00:30 1024 30.24 854 25.22 2.4 36.3 40 -9.8 14.3
00:35 1024 30.24 854 25.22 2.2 35.9 35 -11.8 10.8
00:40 1024 30.24 854 25.22 2.8 37.1 33 -11.8 10.7
00:45 1024 30.24 854 25.22 3.1 37.6 32 -12.1 10.3
00:50 1024 30.24 853 25.19 3 37.4 34 -11.5 11.3
00:55 1024 30.24 853 25.19 2.5 36.5 36 -11.1 12
01:00 1024 30.24 853 25.19 2.2 35.9 36 -11.3 11.7
01:05 1024 30.24 854 25.22 2.2 36 36 -11.5 11.3
01:10 1024 30.24 853 25.19 2.2 36 36 -11.5 11.2
01:15 1024 30.24 853 25.19 2.3 36.1 36 -11.4 11.5
01:20 1024 30.24 853 25.19 2.1 35.8 36 -11.3 11.7
01:25 1024 30.24 853 25.19 2.1 35.7 37 -11.2 11.8
01:30 1024 30.24 854 25.22 2 35.6 38 -10.9 12.4
01:35 1024 30.24 854 25.22 1.8 35.2 39 -10.7 12.7
01:40 1024 30.24 854 25.22 1.6 34.8 40 -10.7 12.7
01:45 1024 30.24 854 25.22 1.4 34.6 40 -10.9 12.5
01:50 1024 30.24 854 25.22 1.5 34.8 38 -11.3 11.7
01:55 1024 30.24 854 25.22 1.7 35.1 38 -11.2 11.9
02:00 1024 30.24 853 25.19 1.7 35 38 -11.1 12
02:05 1024 30.24 853 25.19 1.6 34.9 38 -11.4 11.5
02:10 1024 30.24 854 25.22 1.7 35 38 -11.2 11.9
02:15 1024 30.24 854 25.22 1.6 34.8 39 -11 12.3
02:20 1024 30.24 854 25.22 1.3 34.4 39 -11.2 11.8
02:25 1024 30.24 854 25.22 1.4 34.5 39 -11.2 11.8
02:30 1025 30.27 854 25.22 1.5 34.7 38 -11.5 11.4
02:35 1025 30.27 854 25.22 1.6 34.9 38 -11.3 11.7
02:40 1025 30.27 854 25.22 1.6 34.9 38 -11.3 11.7
02:45 1025 30.27 854 25.22 1.6 34.8 37 -11.5 11.3
02:50 1025 30.27 854 25.22 1.7 35 38 -11.1 12
02:55 1025 30.27 854 25.22 1.4 34.5 40 -10.8 12.6
03:00 1025 30.27 854 25.22 1 33.8 42 -10.6 12.9
03:05 1025 30.27 854 25.22 0.7 33.2 43 -10.6 12.9
03:10 1025 30.27 854 25.22 0.5 32.9 44 -10.4 13.2
03:15 1025 30.27 854 25.22 0.4 32.8 43 -10.7 12.8
03:20 1025 30.27 854 25.22 0.5 32.9 43 -10.5 13
03:25 1025 30.27 854 25.22 0.5 32.8 44 -10.5 13.1
03:30 1025 30.27 854 25.22 0.4 32.7 44 -10.4 13.3
03:35 1025 30.27 854 25.22 -0 31.9 50 -9.2 15.4
03:40 1025 30.27 854 25.22 -0.8 30.6 52 -9.6 14.8
03:45 1025 30.27 854 25.22 -0.8 30.5 51 -9.6 14.7
03:50 1025 30.27 854 25.22 -0.4 31.3 50 -9.6 14.7
03:55 1025 30.27 854 25.22 -0.8 30.6 53 -9.1 15.7
04:00 1025 30.27 854 25.22 -1 30.2 53 -9.5 14.9
04:05 1025 30.27 854 25.22 -1.1 30 53 -9.4 15
04:10 1025 30.27 854 25.22 -0.9 30.3 52 -9.7 14.6
04:15 1025 30.27 854 25.22 -0.8 30.6 51 -9.6 14.7
04:20 1025 30.27 854 25.22 -0.3 31.4 51 -9.4 15.1
04:25 1025 30.27 854 25.22 -0.3 31.5 52 -9 15.7
04:30 1025 30.27 854 25.22 -0 32 49 -9.4 15.1
04:35 1025 30.27 854 25.22 -0.1 31.9 52 -8.7 16.3
04:40 1025 30.27 854 25.22 -0.8 30.6 53 -9.3 15.2
04:45 1025 30.27 854 25.22 -0.7 30.7 51 -9.6 14.8
04:50 1025 30.27 854 25.22 -0.6 31 51 -9.6 14.7
04:55 1025 30.27 854 25.22 -0.1 31.8 49 -9.7 14.5
05:00 1025 30.27 854 25.22 0.1 32.2 48 -9.7 14.5
05:05 1025 30.27 854 25.22 0.3 32.5 45 -10.3 13.4
05:10 1025 30.27 854 25.22 0.7 33.3 44 -10.1 13.8
05:15 1025 30.27 854 25.22 1 33.8 42 -10.4 13.3
05:20 1025 30.27 854 25.22 1.1 34 42 -10.3 13.5
05:25 1025 30.27 854 25.22 1.1 34 43 -10.3 13.5
05:30 1025 30.27 854 25.22 1.1 34 42 -10.3 13.5
05:35 1025 30.27 854 25.22 1.1 34 44 -9.8 14.4
05:40 1025 30.27 854 25.22 0.8 33.5 45 -9.7 14.6
05:45 1025 30.27 854 25.22 0.7 33.2 44 -10.2 13.6
05:50 1025 30.27 854 25.22 1.1 34 41 -10.9 12.4
05:55 1025 30.27 854 25.22 1.5 34.7 40 -10.6 13
06:00 1025 30.27 854 25.22 1.5 34.7 40 -10.5 13
06:05 1025 30.27 854 25.22 1.5 34.7 41 -10.3 13.5
06:10 1025 30.27 854 25.22 1.3 34.3 42 -10.4 13.3
06:15 1025 30.27 854 25.22 1.3 34.4 41 -10.6 13
06:20 1025 30.27 854 25.22 1.5 34.6 40 -10.8 12.6
06:25 1025 30.27 854 25.22 1.6 34.8 39 -10.8 12.5
06:30 1025 30.27 854 25.22 1.6 34.9 40 -10.7 12.8
06:35 1025 30.27 854 25.22 1.5 34.8 40 -10.8 12.6
06:40 1025 30.27 854 25.22 1.6 34.8 40 -10.6 12.9
06:45 1025 30.27 854 25.22 1.4 34.6 40 -10.7 12.8
06:50 1025 30.27 855 25.25 1.3 34.4 40 -10.8 12.6
06:55 1025 30.27 855 25.25 1.3 34.3 41 -10.6 13
07:00 1025 30.27 855 25.25 1.1 34.1 42 -10.5 13.1
07:05 1025 30.27 855 25.25 1 33.8 41 -10.8 12.5
07:10 1025 30.27 855 25.25 1 33.8 41 -10.8 12.5
07:15 1025 30.27 855 25.25 1 33.8 42 -10.6 12.9
07:20 1025 30.27 855 25.25 0.8 33.4 42 -10.6 12.9
07:25 1025 30.27 855 25.25 0.6 33.2 42 -10.8 12.6
07:30 1025 30.27 855 25.25 0.7 33.2 42 -10.8 12.5
07:35 1025 30.27 855 25.25 0.7 33.3 41 -11.1 12
07:40 1025 30.27 854 25.22 0.7 33.3 42 -10.8 12.5
07:45 1025 30.27 855 25.25 0.6 33 42 -10.9 12.4
07:50 1025 30.27 855 25.25 0.6 33 42 -11 12.2
07:55 1025 30.27 855 25.25 0.9 33.5 40 -11.2 11.9
08:00 1025 30.27 855 25.25 0.9 33.6 41 -10.8 12.5
08:05 1026 30.3 855 25.25 0.8 33.5 41 -11 12.2
08:10 1026 30.3 855 25.25 0.9 33.7 42 -10.6 12.9
08:15 1026 30.3 855 25.25 0.8 33.5 42 -10.7 12.7
08:20 1026 30.3 855 25.25 0.8 33.4 42 -10.6 12.9
08:25 1026 30.3 855 25.25 0.7 33.2 43 -10.6 12.9
08:30 1026 30.3 855 25.25 0.7 33.2 43 -10.5 13.1
08:35 1026 30.3 855 25.25 0.7 33.2 43 -10.6 12.9
08:40 1026 30.3 855 25.25 0.8 33.4 44 -10.3 13.5
08:45 1026 30.3 855 25.25 0.7 33.3 43 -10.4 13.2
08:50 1026 30.3 855 25.25 0.9 33.5 43 -10.4 13.4
08:55 1026 30.3 855 25.25 1.1 34 41 -10.6 12.9
09:00 1026 30.3 855 25.25 1.5 34.8 40 -10.6 12.9
09:05 1026 30.3 855 25.25 1.9 35.5 39 -10.5 13
09:10 1026 30.3 855 25.25 2.2 36 39 -10.4 13.2
09:15 1026 30.3 855 25.25 2.4 36.3 38 -10.5 13.1
09:20 1026 30.3 855 25.25 2.9 37.1 35 -11.1 12.1
09:25 1026 30.3 855 25.25 3.4 38.2 34 -11.2 11.9
09:30 1026 30.3 855 25.25 4.1 39.4 33 -10.8 12.5
09:35 1026 30.3 855 25.25 4.3 39.7 33 -10.5 13.1
09:40 1026 30.3 855 25.25 4.5 40.1 33 -10.6 12.9
09:45 1026 30.3 855 25.25 5.2 41.3 32 -10.4 13.3
09:50 1026 30.3 855 25.25 5.7 42.3 31 -10.3 13.4
09:55 1026 30.3 855 25.25 6.2 43.2 31 -9.9 14.2
10:00 1026 30.3 855 25.25 6.3 43.3 30 -10.2 13.7
10:05 1026 30.3 855 25.25 6.6 44 29 -10.1 13.8
10:10 1026 30.3 855 25.25 6.5 43.8 30 -9.7 14.5
10:15 1026 30.3 855 25.25 6.2 43.1 31 -9.9 14.1
10:20 1026 30.3 855 25.25 6 42.9 31 -9.8 14.4
10:25 1026 30.3 855 25.25 5.8 42.4 32 -9.9 14.2
10:30 1026 30.3 855 25.25 5.9 42.6 31 -10 14
10:35 1026 30.3 855 25.25 6 42.8 31 -10 14
10:40 1026 30.3 855 25.25 6 42.8 31 -9.8 14.3
10:45 1026 30.3 855 25.25 6 42.8 31 -9.8 14.3
10:50 1026 30.3 855 25.25 6.3 43.3 30 -10 14.1
10:55 1026 30.3 855 25.25 6.5 43.7 31 -9.3 15.3
11:00 1026 30.3 855 25.25 6.7 44 31 -9.4 15.1
11:05 1026 30.3 855 25.25 6.9 44.5 31 -9.2 15.4
11:10 1026 30.3 855 25.25 7 44.7 31 -8.8 16.2
11:15 1026 30.3 855 25.25 7.1 44.7 32 -8.6 16.6
11:20 1026 30.3 855 25.25 7 44.7 31 -8.9 16
11:25 1026 30.3 855 25.25 7.4 45.4 31 -8.5 16.7
11:30 1026 30.3 855 25.25 8.1 46.6 30 -8.4 16.8
11:35 1026 30.3 855 25.25 8.1 46.6 31 -8.1 17.3
11:40 1026 30.3 855 25.25 8.5 47.2 30 -7.9 17.8
11:45 1026 30.3 855 25.25 9.2 48.6 29 -7.9 17.8
11:50 1026 30.3 855 25.25 9.7 49.5 29 -7.4 18.6
11:55 1026 30.3 855 25.25 9.6 49.2 29 -7.6 18.3
12:00 1026 30.3 855 25.25 9.8 49.7 28 -7.8 17.9
12:05 1026 30.3 855 25.25 9.8 49.7 28 -7.9 17.9
12:10 1026 30.3 855 25.25 10.1 50.1 26 -8.5 16.7
12:15 1026 30.3 855 25.25 10.3 50.6 25 -9.1 15.6
12:20 1026 30.3 855 25.25 10.7 51.3 24 -9 15.7
12:25 1026 30.3 855 25.25 11.1 51.9 23 -9.1 15.7
12:30 1026 30.3 855 25.25 11.3 52.3 24 -8.8 16.1
12:35 1026 30.3 855 25.25 11.2 52.1 23 -9.2 15.5
12:40 1026 30.3 855 25.25 10.8 51.4 22 -10 13.9
12:45 1026 30.3 855 25.25 10.4 50.7 23 -9.9 14.1
12:50 1026 30.3 855 25.25 10.5 50.9 23 -9.7 14.5
12:55 1026 30.3 855 25.25 10.3 50.6 23 -10 14
13:00 1026 30.3 855 25.25 10.6 51.1 23 -9.6 14.7
13:05 1026 30.3 855 25.25 10.3 50.5 22 -10.7 12.8
13:10 1026 30.3 855 25.25 10.5 50.8 21 -10.8 12.5
13:15 1026 30.3 855 25.25 10.9 51.7 21 -10.5 13
13:20 1026 30.3 855 25.25 10.7 51.3 22 -10.4 13.3
13:25 1026 30.3 855 25.25 10.8 51.4 21 -10.7 12.7
13:30 1026 30.3 855 25.25 10.5 50.9 22 -10.6 12.9
13:35 1026 30.3 855 25.25 10.6 51 22 -10.5 13.1
13:40 1026 30.3 855 25.25 10.5 50.8 22 -10.6 12.8
13:45 1026 30.3 855 25.25 10.6 51.1 22 -10.5 13.2
13:50 1026 30.3 855 25.25 11 51.8 21 -10.3 13.5
13:55 1026 30.3 855 25.25 11 51.8 22 -10 14
14:00 1026 30.3 855 25.25 11.4 52.5 21 -10 14
14:05 1026 30.3 855 25.25 11.3 52.4 22 -9.9 14.2
14:10 1026 30.3 855 25.25 11.3 52.4 22 -9.5 14.9
14:15 1026 30.3 855 25.25 11.2 52.1 23 -9.5 14.9
14:20 1026 30.3 855 25.25 11 51.9 22 -10 14.1
14:25 1026 30.3 855 25.25 11.4 52.5 22 -9.7 14.6
14:30 1026 30.3 855 25.25 11.2 52.2 22 -9.9 14.2
14:35 1025 30.27 855 25.25 11.3 52.4 22 -9.8 14.4
14:40 1025 30.27 855 25.25 11.8 53.3 22 -9.3 15.2
14:45 1025 30.27 854 25.22 11.8 53.2 22 -9.1 15.6
14:50 1025 30.27 854 25.22 11.6 52.8 22 -9.6 14.8
14:55 1025 30.27 854 25.22 11.7 53.1 22 -9 15.7
15:00 1025 30.27 854 25.22 11.6 52.9 23 -9 15.8
15:05 1025 30.27 854 25.22 11.8 53.3 22 -9.3 15.2
15:10 1025 30.27 854 25.22 11.5 52.6 23 -9.2 15.4
15:15 1025 30.27 854 25.22 11.6 52.9 22 -9.3 15.3
15:20 1025 30.27 854 25.22 12.1 53.8 21 -9.3 15.3
15:25 1025 30.27 854 25.22 11.9 53.5 23 -8.3 17.1
15:30 1025 30.27 854 25.22 12.2 53.9 21 -9.4 15
15:35 1025 30.27 854 25.22 12.2 54 22 -9 15.8
15:40 1025 30.27 854 25.22 12.3 54.1 21 -9.1 15.6
15:45 1025 30.27 854 25.22 12.2 54 23 -8.4 16.9
15:50 1025 30.27 854 25.22 12.2 54 22 -8.7 16.4
15:55 1025 30.27 854 25.22 12.3 54.1 22 -8.7 16.3
16:00 1025 30.27 854 25.22 12.2 54 23 -8.4 16.9
16:05 1025 30.27 854 25.22 12.5 54.4 21 -9 15.8
16:10 1025 30.27 854 25.22 12.6 54.6 21 -9.2 15.4
16:15 1025 30.27 854 25.22 12.6 54.7 21 -9.2 15.4
16:20 1025 30.27 854 25.22 12.9 55.2 21 -8.6 16.5
16:25 1025 30.27 854 25.22 12.9 55.2 22 -8.6 16.6
16:30 1025 30.27 854 25.22 13.1 55.6 21 -8.6 16.5
16:35 1025 30.27 854 25.22 13.2 55.8 21 -8.5 16.7
16:40 1025 30.27 854 25.22 13 55.3 21 -8.8 16.1
16:45 1025 30.27 854 25.22 12.9 55.2 21 -8.9 15.9
16:50 1025 30.27 854 25.22 12.9 55.2 21 -8.7 16.4
16:55 1025 30.27 854 25.22 13.1 55.5 21 -8.9 16
17:00 1025 30.27 854 25.22 12.9 55.3 22 -8.5 16.7
17:05 1025 30.27 854 25.22 13 55.3 22 -8.5 16.7
17:10 1025 30.27 854 25.22 12.8 55.1 21 -8.6 16.5
17:15 1025 30.27 854 25.22 12.8 55 22 -8.2 17.3
17:20 1025 30.27 854 25.22 12.7 54.9 22 -8.5 16.7
17:25 1025 30.27 854 25.22 12.6 54.7 22 -8.5 16.6
17:30 1025 30.27 854 25.22 12.6 54.6 23 -8.2 17.2
17:35 1025 30.27 854 25.22 12.7 54.8 23 -8.1 17.5
17:40 1025 30.27 854 25.22 12.4 54.4 24 -7.4 18.6
17:45 1025 30.27 854 25.22 11.8 53.2 24 -7.9 17.9
17:50 1025 30.27 854 25.22 11.4 52.5 25 -8.1 17.4
17:55 1025 30.27 854 25.22 11.5 52.7 24 -8.5 16.7
18:00 1025 30.27 854 25.22 12.1 53.7 22 -8.7 16.3
18:05 1025 30.27 854 25.22 12.4 54.3 23 -8.3 17.1
18:10 1025 30.27 854 25.22 12 53.6 24 -8 17.7
18:15 1025 30.27 854 25.22 11.3 52.4 25 -8.1 17.4
18:20 1025 30.27 854 25.22 11 51.7 25 -8.4 16.8
18:25 1025 30.27 854 25.22 10.7 51.2 25 -8.8 16.2
18:30 1025 30.27 854 25.22 10.5 50.9 25 -8.5 16.7
18:35 1025 30.27 854 25.22 10.3 50.5 26 -8.3 17
18:40 1025 30.27 854 25.22 10 49.9 27 -8.3 17.1
18:45 1025 30.27 854 25.22 9.7 49.4 28 -7.9 17.8
18:50 1025 30.27 854 25.22 9.4 48.9 28 -8.2 17.2
18:55 1025 30.27 854 25.22 9.3 48.7 28 -8.1 17.3
19:00 1025 30.27 854 25.22 9.1 48.5 28 -8.4 16.8
19:05 1025 30.27 854 25.22 9.2 48.5 28 -8.5 16.8
19:10 1025 30.27 854 25.22 9.1 48.5 27 -8.7 16.4
19:15 1025 30.27 854 25.22 9.2 48.5 28 -8.5 16.8
19:20 1025 30.27 854 25.22 9.1 48.3 28 -8.5 16.8
19:25 1025 30.27 854 25.22 8.9 48 29 -8.1 17.3
19:30 1025 30.27 854 25.22 8.7 47.7 30 -8.1 17.5
19:35 1025 30.27 854 25.22 8.5 47.3 30 -8.2 17.2
19:40 1025 30.27 854 25.22 8.4 47.1 31 -7.9 17.7
19:45 1025 30.27 854 25.22 7.9 46.3 32 -7.6 18.4
19:50 1025 30.27 854 25.22 7.4 45.3 33 -7.9 17.7
19:55 1025 30.27 854 25.22 7.3 45.1 33 -7.9 17.7
20:00 1025 30.27 854 25.22 7.4 45.2 33 -8 17.6
20:05 1025 30.27 855 25.25 7.2 45 33 -8 17.6
20:10 1025 30.27 855 25.25 7.3 45.1 32 -8.2 17.2
20:15 1025 30.27 855 25.25 7.4 45.4 32 -8.1 17.4
20:20 1025 30.27 855 25.25 7.4 45.4 32 -8.3 17
20:25 1025 30.27 855 25.25 7.6 45.8 31 -8.6 16.5
20:30 1025 30.27 855 25.25 7.9 46.3 30 -8.6 16.5
20:35 1025 30.27 854 25.22 8.1 46.6 30 -8.4 16.9
20:40 1025 30.27 854 25.22 8 46.4 31 -8.3 17
20:45 1025 30.27 854 25.22 7.9 46.2 31 -8.2 17.2
20:50 1025 30.27 854 25.22 7.7 45.8 32 -8.1 17.4
20:55 1025 30.27 854 25.22 7.6 45.7 32 -8.1 17.5
21:00 1025 30.27 854 25.22 7.7 45.8 32 -8.1 17.4
21:05 1025 30.27 854 25.22 7.7 45.9 32 -8 17.6
21:10 1025 30.27 854 25.22 7.9 46.2 31 -8.3 17.1
21:15 1025 30.27 854 25.22 8.1 46.6 30 -8.6 16.6
21:20 1025 30.27 854 25.22 8.3 46.9 30 -8.2 17.3
21:25 1025 30.27 855 25.25 8.1 46.6 32 -7.5 18.5
21:30 1025 30.27 855 25.25 7.6 45.7 32 -7.9 17.8
21:35 1025 30.27 855 25.25 7.7 45.9 32 -8 17.6
21:40 1025 30.27 855 25.25 7.8 46.1 32 -8 17.6
21:45 1026 30.3 855 25.25 7.8 46 32 -7.7 18.1
21:50 1026 30.3 855 25.25 7.5 45.4 34 -7.5 18.6
21:55 1026 30.3 855 25.25 7.3 45.2 33 -8 17.6
22:00 1026 30.3 855 25.25 7.4 45.4 34 -7.5 18.4
22:05 1026 30.3 855 25.25 7.2 44.9 33 -8 17.7
22:10 1026 30.3 855 25.25 7.5 45.5 32 -8.1 17.3
22:15 1026 30.3 855 25.25 7.7 45.9 32 -8 17.6
22:20 1026 30.3 855 25.25 7.7 45.9 32 -8 17.5
22:25 1026 30.3 855 25.25 7.7 45.9 31 -8.2 17.3
22:30 1026 30.3 855 25.25 7.7 45.9 31 -8.2 17.3
22:35 1026 30.3 855 25.25 7.8 46.1 31 -8.3 17.1
22:40 1026 30.3 856 25.28 7.8 46 32 -8.1 17.5
22:45 1026 30.3 856 25.28 7.8 46 31 -8.3 17
22:50 1026 30.3 856 25.28 8 46.4 30 -8.4 16.9
22:55 1026 30.3 856 25.28 8.2 46.8 30 -8.4 16.9
23:00 1026 30.3 856 25.28 8.4 47.2 28 -9.3 15.3
23:05 1026 30.3 856 25.28 8.9 48.1 27 -9 15.7
23:10 1026 30.3 856 25.28 9 48.3 27 -8.8 16.2
23:15 1026 30.3 856 25.28 8.9 48.1 28 -8.7 16.4
23:20 1026 30.3 856 25.28 8.8 47.8 28 -8.7 16.3
23:25 1026 30.3 856 25.28 8.7 47.6 29 -8.3 17
23:30 1026 30.3 856 25.28 8.4 47.1 29 -8.5 16.6
23:35 1026 30.3 856 25.28 8.2 46.8 30 -8.5 16.7
23:40 1026 30.3 856 25.28 8.3 47 28 -9 15.7
23:45 1026 30.3 855 25.25 8.6 47.5 28 -9 15.8
23:50 1026 30.3 855 25.25 8.7 47.6 28 -8.8 16.2
23:55 1026 30.3 855 25.25 8.5 47.3 28 -8.8 16.1
24:00 1026 30.3 855 25.25 8.5 47.2 29 -8.7 16.3